Time;durP1;ratioP1;P1;durP2;ratioP2;P2;SDS_P1;SDS_P2;PMS_P1;PMS_P2;Temp;Humidity;BMP_temperature;BMP_pressure;BME280_temperature;BME280_humidity;BME280_pressure;Samples;Min_cycle;Max_cycle;Signal;HPM_P1;HPM_P2
2022/12/26 00:01:41;;;;;;;;;;;;;;;;;;4929323;28;20066;-64
2022/12/26 00:04:09;;;;;;;;;;;;;;;;;;4928127;28;19919;-64
2022/12/26 00:06:34;;;;;;;;;;;;;;;;;;4991005;28;20618;-65
2022/12/26 00:09:00;;;;;;;;;;;;;;;;;;4928923;28;19922;-64
2022/12/26 00:11:29;;;;;;;;;;;;;;;;;;4904394;28;19937;-64
2022/12/26 00:13:55;;;;;;;;;;;;;;;;;;4925144;28;19980;-64
2022/12/26 00:16:22;;;;;;;;;;;;;;;;;;4910735;28;21459;-64
2022/12/26 00:18:50;;;;;;;;;;;;;;;;;;4922459;28;19918;-64
2022/12/26 00:21:18;;;;;;;;;;;;;;;;;;4925488;28;20392;-64
2022/12/26 00:23:45;;;;;;;;;;;;;;;;;;4905057;28;19926;-64
2022/12/26 00:26:11;;;;;;;;;;;;;;;;;;4923420;28;19925;-66
2022/12/26 00:28:41;;;;;;;;;;;;;;;;;;4977603;28;20029;-64
2022/12/26 00:31:06;;;;;;;;;;;;;;;;;;4920175;28;19930;-64
2022/12/26 00:33:34;;;;;;;;;;;;;;;;;;4906790;28;20005;-65
2022/12/26 00:35:59;;;;;;;;;;;;;;;;;;4903664;28;20085;-63
2022/12/26 00:38:25;;;;;;;;;;;;;;;;;;4903482;28;19923;-64
2022/12/26 00:40:50;;;;;;;;;;;;;;;;;;4895352;28;20026;-65
2022/12/26 00:43:18;;;;;;;;;;;;;;;;;;4984094;28;20071;-64
2022/12/26 00:45:43;;;;;;;;;;;;;;;;;;4905014;28;20064;-64
2022/12/26 00:48:09;;;;;;;;;;;;;;;;;;4905165;28;20051;-64
2022/12/26 00:50:36;;;;;;;;;;;;;;;;;;4904313;28;19918;-64
2022/12/26 00:53:01;;;;;;;;;;;;;;;;;;4897938;28;19977;-65
2022/12/26 00:55:27;;;;;;;;;;;;;;;;;;4905621;28;19950;-64
2022/12/26 00:57:54;;;;;;;;;;;;;;;;;;4904143;28;21586;-65
2022/12/26 01:00:22;;;;;;;;;;;;;;;;;;4903743;28;19938;-64
2022/12/26 01:02:47;;;;;;;;;;;;;;;;;;4897737;28;19922;-64
2022/12/26 01:05:13;;;;;;;;;;;;;;;;;;4902491;28;19930;-66
2022/12/26 01:07:40;;;;;;;;;;;;;;;;;;4918159;28;20348;-65
2022/12/26 01:10:05;;;;;;;;;;;;;;;;;;4913346;28;19927;-64
2022/12/26 01:12:33;;;;;;;;;;;;;;;;;;4908841;28;19980;-66
2022/12/26 01:15:01;;;;;;;;;;;;;;;;;;4900488;28;19923;-66
2022/12/26 01:17:28;;;;;;;;;;;;;;;;;;4913175;28;19922;-65
2022/12/26 01:19:56;;;;;;;;;;;;;;;;;;4906307;28;20661;-65
2022/12/26 01:22:24;;;;;;;;;;;;;;;;;;4902706;28;19927;-65
2022/12/26 01:24:49;;;;;;;;;;;;;;;;;;4905162;28;19988;-65
2022/12/26 01:27:15;;;;;;;;;;;;;;;;;;4912113;28;19965;-65
2022/12/26 01:29:41;;;;;;;;;;;;;;;;;;4904023;28;19918;-64
2022/12/26 01:32:06;;;;;;;;;;;;;;;;;;4902390;28;19925;-64
2022/12/26 01:34:32;;;;;;;;;;;;;;;;;;4902913;28;20363;-65
2022/12/26 01:37:00;;;;;;;;;;;;;;;;;;4913299;28;19962;-64
2022/12/26 01:39:28;;;;;;;;;;;;;;;;;;4900562;28;19927;-64
2022/12/26 01:41:53;;;;;;;;;;;;;;;;;;4984035;28;20575;-64
2022/12/26 01:44:21;;;;;;;;;;;;;;;;;;4917897;28;19972;-65
2022/12/26 01:46:48;;;;;;;;;;;;;;;;;;4905014;28;20618;-64
2022/12/26 01:49:16;;;;;;;;;;;;;;;;;;4904939;28;19922;-65
2022/12/26 01:51:41;;;;;;;;;;;;;;;;;;4902016;28;21695;-64
2022/12/26 01:54:09;;;;;;;;;;;;;;;;;;4898982;28;19964;-63
2022/12/26 01:56:34;;;;;;;;;;;;;;;;;;4966873;28;19945;-64
2022/12/26 01:58:59;;;;;;;;;;;;;;;;;;4905039;28;19923;-64
2022/12/26 02:01:29;;;;;;;;;;;;;;;;;;4900523;28;19918;-64
2022/12/26 02:06:46;;;;;;;;;;;;;;;;;;4902611;28;19945;-64
2022/12/26 02:09:11;;;;;;;;;;;;;;;;;;4984982;28;20322;-64
2022/12/26 02:11:47;;;;;;;;;;;;;;;;;;5004083;27;2001385;-65
2022/12/26 02:14:14;;;;;;;;;;;;;;;;;;5042991;28;19931;-64
2022/12/26 02:16:42;;;;;;;;;;;;;;;;;;5062987;28;19924;-64
2022/12/26 02:19:07;;;;;;;;;;;;;;;;;;5064501;28;20066;-65
2022/12/26 02:21:35;;;;;;;;;;;;;;;;;;5063951;28;20095;-65
2022/12/26 02:24:02;;;;;;;;;;;;;;;;;;5043518;28;19916;-66
2022/12/26 02:26:28;;;;;;;;;;;;;;;;;;5045121;28;19993;-65
2022/12/26 02:28:58;;;;;;;;;;;;;;;;;;5045622;28;19927;-65
2022/12/26 02:31:26;;;;;;;;;;;;;;;;;;5043035;28;19924;-64
2022/12/26 02:33:51;;;;;;;;;;;;;;;;;;5045607;28;20073;-65
2022/12/26 02:36:19;;;;;;;;;;;;;;;;;;5044447;28;20310;-65
2022/12/26 02:38:49;;;;;;;;;;;;;;;;;;5026592;28;19916;-64
2022/12/26 02:41:14;;;;;;;;;;;;;;;;;;5035883;28;19920;-64
2022/12/26 02:43:39;;;;;;;;;;;;;;;;;;5041666;28;20266;-64
2022/12/26 02:48:53;;;;;;;;;;;;;;;;;;5063199;28;20363;-64
2022/12/26 03:13:18;;;;;;;;;;;;;;;;;;5062448;28;21408;-65
2022/12/26 03:18:28;;;;;;;;;;;;;;;;;;5042460;28;20125;-66
2022/12/26 03:20:55;;;;;;;;;;;;;;;;;;5038292;28;19970;-65
2022/12/26 03:23:23;;;;;;;;;;;;;;;;;;5048019;28;19917;-65
2022/12/26 03:28:33;;;;;;;;;;;;;;;;;;5050997;28;19931;-66
2022/12/26 03:30:58;;;;;;;;;;;;;;;;;;5048632;28;19928;-66
2022/12/26 03:36:10;;;;;;;;;;;;;;;;;;5023034;28;19928;-67
2022/12/26 03:38:35;;;;;;;;;;;;;;;;;;5032244;28;19917;-66
2022/12/26 04:20:39;;;;;;;;;;;;;;;;;;5049749;28;19916;-66
2022/12/26 04:45:00;;;;;;;;;;;;;;;;;;5027351;28;20005;-66
2022/12/26 04:47:26;;;;;;;;;;;;;;;;;;5046608;28;20398;-67
2022/12/26 04:50:10;;;;;;;;;;;;;;;;;;5049385;28;19924;-66
2022/12/26 04:55:25;;;;;;;;;;;;;;;;;;5047040;28;19920;-67
2022/12/26 04:57:50;;;;;;;;;;;;;;;;;;5047149;28;19921;-66
2022/12/26 05:00:15;;;;;;;;;;;;;;;;;;5027943;28;20447;-66
2022/12/26 05:10:58;;;;;;;;;;;;;;;;;;5047211;28;19935;-67
2022/12/26 05:13:24;;;;;;;;;;;;;;;;;;5047519;28;19920;-68
2022/12/26 05:29:34;;;;;;;;;;;;;;;;;;5045422;28;20546;-67
2022/12/26 05:32:05;;;;;;;;;;;;;;;;;;5027439;28;20192;-68
2022/12/26 05:34:35;;;;;;;;;;;;;;;;;;5026292;28;19986;-68
2022/12/26 05:37:00;;;;;;;;;;;;;;;;;;5043605;28;19943;-68
2022/12/26 05:39:30;;;;;;;;;;;;;;;;;;5013772;28;20428;-67
2022/12/26 05:41:56;;;;;;;;;;;;;;;;;;5028981;28;19931;-72
2022/12/26 05:44:23;;;;;;;;;;;;;;;;;;5029012;28;20014;-67
2022/12/26 05:46:51;;;;;;;;;;;;;;;;;;5043212;28;19916;-71
2022/12/26 05:49:16;;;;;;;;;;;;;;;;;;5047048;28;20746;-68
2022/12/26 05:51:44;;;;;;;;;;;;;;;;;;5032311;28;19925;-68
2022/12/26 05:54:11;;;;;;;;;;;;;;;;;;5046634;28;19920;-66
2022/12/26 05:56:37;;;;;;;;;;;;;;;;;;5027037;28;19924;-69
2022/12/26 05:59:02;;;;;;;;;;;;;;;;;;5029269;28;20026;-69
2022/12/26 06:01:30;;;;;;;;;;;;;;;;;;5046066;28;19920;-68
2022/12/26 06:03:57;;;;;;;;;;;;;;;;;;5027662;28;19928;-67
2022/12/26 06:06:25;;;;;;;;;;;;;;;;;;5011162;28;19916;-67
2022/12/26 06:08:50;;;;;;;;;;;;;;;;;;5015269;28;19935;-66
2022/12/26 06:11:16;;;;;;;;;;;;;;;;;;5045805;28;20383;-70
2022/12/26 06:13:42;;;;;;;;;;;;;;;;;;5047406;28;19925;-69
2022/12/26 06:16:10;;;;;;;;;;;;;;;;;;5024451;28;19916;-69
2022/12/26 06:18:35;;;;;;;;;;;;;;;;;;5046770;28;20116;-69
2022/12/26 06:21:03;;;;;;;;;;;;;;;;;;5045948;28;20409;-69
2022/12/26 06:23:33;;;;;;;;;;;;;;;;;;5029140;28;19916;-70
2022/12/26 06:26:01;;;;;;;;;;;;;;;;;;4999477;28;19928;-68
2022/12/26 06:28:29;;;;;;;;;;;;;;;;;;5027012;28;19920;-68
2022/12/26 06:30:54;;;;;;;;;;;;;;;;;;5046242;28;19924;-69
2022/12/26 06:33:22;;;;;;;;;;;;;;;;;;5027241;28;19924;-70
2022/12/26 06:35:47;;;;;;;;;;;;;;;;;;5025726;28;20478;-69
2022/12/26 06:38:13;;;;;;;;;;;;;;;;;;5048225;28;19916;-69
2022/12/26 06:40:39;;;;;;;;;;;;;;;;;;5045070;28;19971;-68
2022/12/26 06:43:05;;;;;;;;;;;;;;;;;;5048052;28;20003;-68
2022/12/26 06:45:30;;;;;;;;;;;;;;;;;;5043494;28;19928;-69
2022/12/26 06:47:58;;;;;;;;;;;;;;;;;;5046532;28;20205;-68
2022/12/26 06:50:23;;;;;;;;;;;;;;;;;;5010444;28;20464;-69
2022/12/26 06:52:48;;;;;;;;;;;;;;;;;;5044240;28;19921;-68
2022/12/26 06:55:16;;;;;;;;;;;;;;;;;;5029920;28;20437;-68
2022/12/26 06:57:41;;;;;;;;;;;;;;;;;;5029188;28;19924;-69
2022/12/26 07:00:10;;;;;;;;;;;;;;;;;;5045659;28;20482;-73
2022/12/26 07:02:37;;;;;;;;;;;;;;;;;;5027602;28;19920;-69
2022/12/26 07:05:02;;;;;;;;;;;;;;;;;;5049426;28;20312;-70
2022/12/26 07:07:28;;;;;;;;;;;;;;;;;;5030008;28;19923;-69
2022/12/26 07:09:56;;;;;;;;;;;;;;;;;;5044581;28;19936;-68
2022/12/26 07:12:26;;;;;;;;;;;;;;;;;;5029998;28;19916;-70
2022/12/26 07:14:54;;;;;;;;;;;;;;;;;;5047815;28;19916;-70
2022/12/26 07:17:19;;;;;;;;;;;;;;;;;;5045112;28;19959;-71
2022/12/26 07:19:45;;;;;;;;;;;;;;;;;;5049350;28;20011;-71
2022/12/26 07:22:12;;;;;;;;;;;;;;;;;;5027951;28;20397;-69
2022/12/26 07:24:38;;;;;;;;;;;;;;;;;;5016490;28;19921;-71
2022/12/26 07:27:03;;;;;;;;;;;;;;;;;;5030707;28;20585;-70
2022/12/26 07:29:29;;;;;;;;;;;;;;;;;;5012648;28;20977;-71
2022/12/26 07:31:56;;;;;;;;;;;;;;;;;;5045554;28;19928;-69
2022/12/26 07:34:22;;;;;;;;;;;;;;;;;;5029660;28;19920;-70
2022/12/26 07:36:50;;;;;;;;;;;;;;;;;;5028386;28;19927;-70
2022/12/26 07:39:17;;;;;;;;;;;;;;;;;;5028511;28;19927;-72
2022/12/26 07:41:58;;;;;;;;;;;;;;;;;;5046426;28;19931;-70
2022/12/26 07:44:26;;;;;;;;;;;;;;;;;;5028280;28;19924;-70
2022/12/26 07:46:56;;;;;;;;;;;;;;;;;;5014795;28;19929;-68
2022/12/26 07:49:24;;;;;;;;;;;;;;;;;;5046439;28;19985;-70
2022/12/26 07:51:49;;;;;;;;;;;;;;;;;;5044950;28;20494;-69
2022/12/26 07:54:14;;;;;;;;;;;;;;;;;;5046132;28;20030;-67
2022/12/26 07:56:40;;;;;;;;;;;;;;;;;;5021178;28;19920;-70
2022/12/26 07:59:05;;;;;;;;;;;;;;;;;;5051223;28;19920;-68
2022/12/26 08:01:31;;;;;;;;;;;;;;;;;;5041628;28;19962;-70
2022/12/26 08:03:56;;;;;;;;;;;;;;;;;;5029456;28;20019;-68
2022/12/26 08:06:21;;;;;;;;;;;;;;;;;;5047342;28;20306;-68
2022/12/26 08:08:51;;;;;;;;;;;;;;;;;;5028728;28;19950;-69
2022/12/26 08:11:19;;;;;;;;;;;;;;;;;;5026303;28;19928;-68
2022/12/26 08:13:44;;;;;;;;;;;;;;;;;;5027053;28;21546;-68
2022/12/26 08:16:13;;;;;;;;;;;;;;;;;;5046367;28;19922;-68
2022/12/26 08:18:41;;;;;;;;;;;;;;;;;;4997571;28;19923;-70
2022/12/26 08:21:06;;;;;;;;;;;;;;;;;;5012090;28;19956;-67
2022/12/26 08:23:31;;;;;;;;;;;;;;;;;;5028739;28;19916;-68
2022/12/26 08:25:56;;;;;;;;;;;;;;;;;;5045114;28;20023;-68
2022/12/26 08:28:24;;;;;;;;;;;;;;;;;;5030357;28;20424;-68
2022/12/26 08:30:52;;;;;;;;;;;;;;;;;;5014261;28;20022;-67
2022/12/26 08:33:17;;;;;;;;;;;;;;;;;;5010979;28;19916;-67
2022/12/26 08:35:45;;;;;;;;;;;;;;;;;;5025760;28;19931;-66
2022/12/26 08:38:10;;;;;;;;;;;;;;;;;;5028530;28;19920;-68
2022/12/26 08:40:35;;;;;;;;;;;;;;;;;;5010729;28;20318;-67
2022/12/26 08:43:00;;;;;;;;;;;;;;;;;;5028530;28;19920;-68
2022/12/26 08:45:29;;;;;;;;;;;;;;;;;;5027801;28;19927;-68
2022/12/26 08:47:54;;;;;;;;;;;;;;;;;;5040947;28;19920;-68
2022/12/26 08:50:22;;;;;;;;;;;;;;;;;;5027447;28;19939;-68
2022/12/26 08:52:50;;;;;;;;;;;;;;;;;;5044858;28;19920;-68
2022/12/26 08:55:15;;;;;;;;;;;;;;;;;;5043575;28;20373;-69
2022/12/26 08:57:41;;;;;;;;;;;;;;;;;;5045748;28;20550;-70
2022/12/26 09:00:06;;;;;;;;;;;;;;;;;;5027655;28;19924;-68
2022/12/26 09:02:32;;;;;;;;;;;;;;;;;;5044708;28;19920;-67
2022/12/26 09:04:57;;;;;;;;;;;;;;;;;;5042764;28;20391;-68
2022/12/26 09:07:23;;;;;;;;;;;;;;;;;;5026565;28;19933;-68
2022/12/26 09:09:49;;;;;;;;;;;;;;;;;;5047396;28;20069;-70
2022/12/26 09:12:16;;;;;;;;;;;;;;;;;;5014871;28;20036;-67
2022/12/26 09:14:42;;;;;;;;;;;;;;;;;;5029496;28;19927;-69
2022/12/26 09:17:10;;;;;;;;;;;;;;;;;;5010885;28;21357;-68
2022/12/26 09:19:38;;;;;;;;;;;;;;;;;;5021523;28;20372;-68
2022/12/26 09:24:52;;;;;;;;;;;;;;;;;;5027018;28;19946;-67
2022/12/26 09:27:20;;;;;;;;;;;;;;;;;;5026880;28;19926;-69
2022/12/26 09:29:46;;;;;;;;;;;;;;;;;;5046783;28;19916;-69
2022/12/26 09:32:11;;;;;;;;;;;;;;;;;;5014090;28;19995;-66
2022/12/26 09:34:39;;;;;;;;;;;;;;;;;;5048428;28;19947;-68
2022/12/26 09:37:04;;;;;;;;;;;;;;;;;;5046053;28;19920;-69
2022/12/26 09:39:30;;;;;;;;;;;;;;;;;;5023154;28;19924;-70
2022/12/26 09:41:55;;;;;;;;;;;;;;;;;;5023011;28;20436;-67
2022/12/26 09:44:25;;;;;;;;;;;;;;;;;;5024955;28;19922;-71
2022/12/26 09:46:53;;;;;;;;;;;;;;;;;;5042567;28;19921;-68
2022/12/26 09:49:21;;;;;;;;;;;;;;;;;;5041262;28;19921;-66
2022/12/26 09:51:46;;;;;;;;;;;;;;;;;;5044191;28;20406;-66
2022/12/26 09:54:13;;;;;;;;;;;;;;;;;;5027559;28;19943;-68
2022/12/26 09:56:41;;;;;;;;;;;;;;;;;;5025013;28;20284;-65
2022/12/26 09:59:09;;;;;;;;;;;;;;;;;;5043803;28;20053;-70
2022/12/26 10:01:34;;;;;;;;;;;;;;;;;;5043996;28;20054;-67
2022/12/26 10:03:59;;;;;;;;;;;;;;;;;;4998434;28;19935;-69
2022/12/26 10:06:25;;;;;;;;;;;;;;;;;;5029192;28;20010;-67
2022/12/26 10:08:50;;;;;;;;;;;;;;;;;;5005563;28;19931;-66
2022/12/26 10:11:15;;;;;;;;;;;;;;;;;;5014971;28;20084;-69
2022/12/26 10:13:41;;;;;;;;;;;;;;;;;;5029572;28;19916;-69
2022/12/26 10:16:06;;;;;;;;;;;;;;;;;;5047813;28;19928;-67
2022/12/26 10:18:31;;;;;;;;;;;;;;;;;;5027126;28;20383;-70
2022/12/26 10:20:57;;;;;;;;;;;;;;;;;;5026279;28;19916;-72
2022/12/26 10:23:23;;;;;;;;;;;;;;;;;;5041577;28;20011;-65
2022/12/26 10:25:48;;;;;;;;;;;;;;;;;;5022385;28;19927;-71
2022/12/26 10:28:16;;;;;;;;;;;;;;;;;;5010258;28;20047;-67
2022/12/26 10:30:41;;;;;;;;;;;;;;;;;;5029750;28;19931;-65
2022/12/26 10:33:09;;;;;;;;;;;;;;;;;;5045493;28;19920;-66
2022/12/26 10:35:35;;;;;;;;;;;;;;;;;;5017478;28;20406;-70
2022/12/26 10:38:00;;;;;;;;;;;;;;;;;;5032014;28;20073;-69
2022/12/26 10:40:26;;;;;;;;;;;;;;;;;;5032868;28;20398;-70
2022/12/26 10:42:54;;;;;;;;;;;;;;;;;;5050377;28;19916;-69
2022/12/26 10:45:21;;;;;;;;;;;;;;;;;;5033474;28;19997;-68
2022/12/26 10:47:49;;;;;;;;;;;;;;;;;;5051185;28;20972;-67
2022/12/26 10:50:17;;;;;;;;;;;;;;;;;;5030800;28;20503;-69
2022/12/26 10:52:42;;;;;;;;;;;;;;;;;;5030936;28;20299;-68
2022/12/26 10:55:07;;;;;;;;;;;;;;;;;;5050977;28;20062;-69
2022/12/26 10:57:35;;;;;;;;;;;;;;;;;;5030864;28;19935;-68
2022/12/26 11:00:07;;;;;;;;;;;;;;;;;;5051157;28;19921;-66
2022/12/26 11:02:32;;;;;;;;;;;;;;;;;;5049162;28;20214;-69
2022/12/26 11:04:57;;;;;;;;;;;;;;;;;;5030454;28;20350;-70
2022/12/26 11:07:22;;;;;;;;;;;;;;;;;;5003656;28;19959;-68
2022/12/26 11:09:54;;;;;;;;;;;;;;;;;;5030685;28;19927;-69
2022/12/26 11:15:36;;;;;;;;;;;;;;;;;;5045407;28;20243;-67
2022/12/26 11:18:04;;;;;;;;;;;;;;;;;;5027862;28;20052;-68
2022/12/26 11:20:33;;;;;;;;;;;;;;;;;;5029570;28;20129;-69
2022/12/26 11:23:00;;;;;;;;;;;;;;;;;;5026321;28;19920;-70
2022/12/26 11:25:29;;;;;;;;;;;;;;;;;;5027169;28;19928;-69
2022/12/26 11:27:56;;;;;;;;;;;;;;;;;;5045369;28;19920;-69
2022/12/26 11:30:24;;;;;;;;;;;;;;;;;;5026868;28;21386;-69
2022/12/26 11:32:49;;;;;;;;;;;;;;;;;;5044920;28;19916;-69
2022/12/26 11:35:17;;;;;;;;;;;;;;;;;;5028977;28;19926;-69
2022/12/26 11:37:45;;;;;;;;;;;;;;;;;;5049724;28;20455;-67
2022/12/26 11:43:26;;;;;;;;;;;;;;;;;;5047871;28;19974;-67
2022/12/26 11:45:54;;;;;;;;;;;;;;;;;;5013610;28;19927;-70
2022/12/26 11:48:20;;;;;;;;;;;;;;;;;;5028607;28;20055;-69
2022/12/26 11:50:45;;;;;;;;;;;;;;;;;;5048064;28;20208;-67
2022/12/26 11:53:11;;;;;;;;;;;;;;;;;;5013965;28;19928;-71
2022/12/26 11:55:39;;;;;;;;;;;;;;;;;;5043960;28;20008;-68
2022/12/26 11:58:05;;;;;;;;;;;;;;;;;;5029414;28;19982;-68
2022/12/26 12:00:30;;;;;;;;;;;;;;;;;;5027539;28;19916;-68
2022/12/26 12:03:00;;;;;;;;;;;;;;;;;;5029122;28;19917;-67
2022/12/26 12:05:28;;;;;;;;;;;;;;;;;;5049674;28;20502;-68
2022/12/26 12:07:53;;;;;;;;;;;;;;;;;;5011143;28;19916;-68
2022/12/26 12:10:19;;;;;;;;;;;;;;;;;;5025753;28;20637;-67
2022/12/26 12:12:45;;;;;;;;;;;;;;;;;;5026871;28;20095;-67
2022/12/26 12:15:12;;;;;;;;;;;;;;;;;;5028390;28;19927;-65
2022/12/26 12:17:40;;;;;;;;;;;;;;;;;;5024031;28;19967;-65
2022/12/26 12:20:05;;;;;;;;;;;;;;;;;;5027307;28;20279;-65
2022/12/26 12:22:33;;;;;;;;;;;;;;;;;;5028972;28;19916;-67
2022/12/26 12:25:00;;;;;;;;;;;;;;;;;;5023689;28;19920;-67
2022/12/26 12:27:26;;;;;;;;;;;;;;;;;;5012279;28;20506;-67
2022/12/26 12:29:51;;;;;;;;;;;;;;;;;;5027848;28;19924;-66
2022/12/26 12:32:19;;;;;;;;;;;;;;;;;;5027876;28;19916;-66
2022/12/26 12:34:44;;;;;;;;;;;;;;;;;;5027300;28;19975;-67
2022/12/26 12:37:09;;;;;;;;;;;;;;;;;;5010933;28;19967;-67
2022/12/26 12:39:34;;;;;;;;;;;;;;;;;;5021489;28;19917;-67
2022/12/26 12:42:04;;;;;;;;;;;;;;;;;;5022069;28;20019;-65
2022/12/26 12:44:30;;;;;;;;;;;;;;;;;;5024488;28;19947;-66
2022/12/26 12:46:57;;;;;;;;;;;;;;;;;;5021397;28;19924;-66
2022/12/26 12:49:23;;;;;;;;;;;;;;;;;;5020624;28;20338;-67
2022/12/26 12:51:48;;;;;;;;;;;;;;;;;;5025685;28;20018;-67
2022/12/26 12:54:14;;;;;;;;;;;;;;;;;;5024432;28;20439;-69
2022/12/26 12:56:39;;;;;;;;;;;;;;;;;;5007537;28;19975;-67
2022/12/26 12:59:08;;;;;;;;;;;;;;;;;;5027015;28;19916;-71
2022/12/26 13:01:33;;;;;;;;;;;;;;;;;;5009912;28;19927;-68
2022/12/26 13:03:59;;;;;;;;;;;;;;;;;;5021403;28;19939;-67
2022/12/26 13:06:25;;;;;;;;;;;;;;;;;;5025135;28;19921;-67
2022/12/26 13:08:50;;;;;;;;;;;;;;;;;;5029284;28;19966;-68
2022/12/26 13:11:16;;;;;;;;;;;;;;;;;;5037473;28;19924;-67
2022/12/26 13:13:43;;;;;;;;;;;;;;;;;;5047557;28;19927;-69
2022/12/26 13:16:09;;;;;;;;;;;;;;;;;;5011112;28;20666;-68
2022/12/26 13:18:53;;;;;;;;;;;;;;;;;;5048647;28;19926;-67
2022/12/26 13:21:23;;;;;;;;;;;;;;;;;;5029254;28;19916;-67
2022/12/26 13:26:35;;;;;;;;;;;;;;;;;;5027957;28;20372;-67
2022/12/26 13:29:00;;;;;;;;;;;;;;;;;;5026870;28;20043;-66
2022/12/26 13:31:25;;;;;;;;;;;;;;;;;;5026983;28;19932;-66
2022/12/26 13:33:51;;;;;;;;;;;;;;;;;;5045214;28;19916;-67
2022/12/26 13:36:18;;;;;;;;;;;;;;;;;;5026664;28;19928;-66
2022/12/26 13:38:44;;;;;;;;;;;;;;;;;;5046612;28;19986;-67
2022/12/26 13:43:56;;;;;;;;;;;;;;;;;;5046980;28;20215;-67
2022/12/26 13:46:22;;;;;;;;;;;;;;;;;;5027824;28;20183;-68
2022/12/26 13:48:50;;;;;;;;;;;;;;;;;;5046271;28;20028;-66
2022/12/26 13:51:15;;;;;;;;;;;;;;;;;;5013593;28;20022;-67
2022/12/26 13:53:40;;;;;;;;;;;;;;;;;;5046747;28;19920;-67
2022/12/26 13:56:06;;;;;;;;;;;;;;;;;;5025367;28;20659;-67
2022/12/26 13:58:31;;;;;;;;;;;;;;;;;;5013021;28;20740;-67
2022/12/26 14:00:56;;;;;;;;;;;;;;;;;;5044368;28;19978;-67
2022/12/26 14:03:22;;;;;;;;;;;;;;;;;;5010178;28;20587;-67
2022/12/26 14:05:47;;;;;;;;;;;;;;;;;;5011933;28;19990;-66
2022/12/26 14:08:12;;;;;;;;;;;;;;;;;;5025810;28;20341;-70
2022/12/26 14:10:43;;;;;;;;;;;;;;;;;;5008167;28;20449;-68
2022/12/26 14:13:10;;;;;;;;;;;;;;;;;;5040463;28;20030;-66
2022/12/26 14:15:35;;;;;;;;;;;;;;;;;;5004419;28;19920;-67
2022/12/26 14:18:00;;;;;;;;;;;;;;;;;;5024330;28;19920;-68
2022/12/26 14:20:26;;;;;;;;;;;;;;;;;;5046149;28;19927;-67
2022/12/26 14:22:51;;;;;;;;;;;;;;;;;;5027284;28;20329;-68
2022/12/26 14:25:19;;;;;;;;;;;;;;;;;;5025511;28;19920;-68
2022/12/26 14:27:45;;;;;;;;;;;;;;;;;;5041206;28;20111;-68
2022/12/26 14:30:10;;;;;;;;;;;;;;;;;;5044218;28;19924;-68
2022/12/26 14:32:36;;;;;;;;;;;;;;;;;;5023035;28;19920;-68
2022/12/26 14:35:02;;;;;;;;;;;;;;;;;;5045329;28;19916;-68
2022/12/26 14:37:27;;;;;;;;;;;;;;;;;;5043135;28;19920;-68
2022/12/26 14:39:53;;;;;;;;;;;;;;;;;;5039772;28;19947;-68
2022/12/26 14:45:02;;;;;;;;;;;;;;;;;;5043156;28;20022;-68
2022/12/26 14:47:27;;;;;;;;;;;;;;;;;;5012173;28;20511;-69
2022/12/26 14:49:57;;;;;;;;;;;;;;;;;;5011740;28;19921;-70
2022/12/26 14:52:23;;;;;;;;;;;;;;;;;;5027152;28;19924;-70
2022/12/26 14:54:48;;;;;;;;;;;;;;;;;;5024424;28;21573;-71
2022/12/26 14:57:15;;;;;;;;;;;;;;;;;;5046418;28;20158;-69
2022/12/26 14:59:41;;;;;;;;;;;;;;;;;;5009822;28;19978;-69
2022/12/26 15:02:09;;;;;;;;;;;;;;;;;;5025358;28;20184;-69
2022/12/26 15:04:34;;;;;;;;;;;;;;;;;;5025017;28;20002;-70
2022/12/26 15:07:02;;;;;;;;;;;;;;;;;;5026568;28;19921;-68
2022/12/26 15:09:29;;;;;;;;;;;;;;;;;;5046525;28;19969;-69
2022/12/26 15:11:55;;;;;;;;;;;;;;;;;;5045358;28;20545;-69
2022/12/26 15:14:21;;;;;;;;;;;;;;;;;;5026843;28;20451;-70
2022/12/26 15:16:48;;;;;;;;;;;;;;;;;;5011727;28;19921;-70
2022/12/26 15:19:14;;;;;;;;;;;;;;;;;;5027346;28;19928;-70
2022/12/26 15:21:40;;;;;;;;;;;;;;;;;;5033082;28;21992;-70
2022/12/26 15:24:05;;;;;;;;;;;;;;;;;;5013859;28;20199;-70
2022/12/26 15:26:33;;;;;;;;;;;;;;;;;;5029300;28;19931;-70
2022/12/26 15:29:01;;;;;;;;;;;;;;;;;;5048519;28;19915;-70
2022/12/26 15:31:28;;;;;;;;;;;;;;;;;;5047440;28;19932;-70
2022/12/26 15:33:54;;;;;;;;;;;;;;;;;;5028497;28;19916;-70
2022/12/26 15:36:19;;;;;;;;;;;;;;;;;;5026362;28;19946;-71
2022/12/26 15:38:47;;;;;;;;;;;;;;;;;;5046920;28;19939;-71
2022/12/26 15:41:13;;;;;;;;;;;;;;;;;;5044443;28;19920;-70
2022/12/26 15:43:38;;;;;;;;;;;;;;;;;;5044962;28;19927;-70
2022/12/26 15:46:03;;;;;;;;;;;;;;;;;;5010341;28;19924;-71
2022/12/26 15:48:28;;;;;;;;;;;;;;;;;;5000368;28;19956;-71
2022/12/26 15:50:54;;;;;;;;;;;;;;;;;;5043847;28;19924;-71
2022/12/26 15:53:19;;;;;;;;;;;;;;;;;;5030150;28;20661;-74
2022/12/26 15:55:47;;;;;;;;;;;;;;;;;;5023150;28;19946;-72
2022/12/26 15:58:12;;;;;;;;;;;;;;;;;;5028239;28;20855;-71
2022/12/26 16:00:38;;;;;;;;;;;;;;;;;;5043568;28;19927;-72
2022/12/26 16:03:03;;;;;;;;;;;;;;;;;;5028922;28;19920;-71
2022/12/26 16:05:29;;;;;;;;;;;;;;;;;;5049886;28;19923;-72
2022/12/26 16:07:54;;;;;;;;;;;;;;;;;;5011131;28;19920;-70
2022/12/26 16:10:20;;;;;;;;;;;;;;;;;;5023116;28;20334;-71
2022/12/26 16:12:45;;;;;;;;;;;;;;;;;;5045128;28;19920;-73
2022/12/26 16:15:10;;;;;;;;;;;;;;;;;;5018665;28;20375;-72
2022/12/26 16:17:36;;;;;;;;;;;;;;;;;;5011197;28;19920;-72
2022/12/26 16:20:03;;;;;;;;;;;;;;;;;;5046920;28;20592;-72
2022/12/26 16:22:47;;;;;;;;;;;;;;;;;;5047171;28;20384;-72
2022/12/26 16:25:12;;;;;;;;;;;;;;;;;;5027921;28;19955;-71
2022/12/26 16:27:37;;;;;;;;;;;;;;;;;;5012645;28;19916;-71
2022/12/26 16:30:03;;;;;;;;;;;;;;;;;;5021800;28;20018;-71
2022/12/26 16:32:29;;;;;;;;;;;;;;;;;;5027017;28;20340;-72
2022/12/26 16:34:55;;;;;;;;;;;;;;;;;;5047244;28;19920;-72
2022/12/26 16:40:37;;;;;;;;;;;;;;;;;;5046456;28;20648;-73
2022/12/26 16:43:02;;;;;;;;;;;;;;;;;;5047889;28;20023;-73
2022/12/26 16:45:27;;;;;;;;;;;;;;;;;;5023828;28;20465;-75
2022/12/26 16:47:55;;;;;;;;;;;;;;;;;;5048121;28;19920;-74
2022/12/26 16:53:39;;;;;;;;;;;;;;;;;;5046174;28;19938;-72
2022/12/26 16:56:07;;;;;;;;;;;;;;;;;;5023618;28;19920;-73
2022/12/26 16:58:33;;;;;;;;;;;;;;;;;;5043858;28;19927;-74
2022/12/26 17:00:59;;;;;;;;;;;;;;;;;;5044638;28;19920;-73
2022/12/26 17:03:27;;;;;;;;;;;;;;;;;;5046331;28;19980;-72
2022/12/26 17:05:56;;;;;;;;;;;;;;;;;;5044557;28;20448;-73
2022/12/26 17:08:21;;;;;;;;;;;;;;;;;;5047735;28;20330;-72
2022/12/26 17:10:47;;;;;;;;;;;;;;;;;;5023931;28;19924;-71
2022/12/26 17:13:12;;;;;;;;;;;;;;;;;;5032431;28;20464;-73
2022/12/26 17:15:42;;;;;;;;;;;;;;;;;;5047366;28;19959;-73
2022/12/26 17:18:08;;;;;;;;;;;;;;;;;;5029400;28;19924;-72
2022/12/26 17:20:34;;;;;;;;;;;;;;;;;;5049043;28;19916;-71
2022/12/26 17:22:59;;;;;;;;;;;;;;;;;;5046439;28;20382;-73
2022/12/26 17:25:26;;;;;;;;;;;;;;;;;;5047883;28;19928;-74
2022/12/26 17:27:54;;;;;;;;;;;;;;;;;;5047099;28;19958;-74
2022/12/26 17:30:20;;;;;;;;;;;;;;;;;;5012162;28;19928;-74
2022/12/26 17:32:45;;;;;;;;;;;;;;;;;;5027448;28;20350;-73
2022/12/26 17:35:18;;;;;;;;;;;;;;;;;;5029169;28;20004;-73
2022/12/26 17:37:46;;;;;;;;;;;;;;;;;;5028439;28;19972;-74
2022/12/26 17:40:11;;;;;;;;;;;;;;;;;;5030595;28;19920;-71
2022/12/26 17:42:39;;;;;;;;;;;;;;;;;;5046406;28;20449;-73
2022/12/26 17:45:23;;;;;;;;;;;;;;;;;;5025324;28;19917;-73
2022/12/26 17:47:51;;;;;;;;;;;;;;;;;;5027294;28;20462;-72
2022/12/26 17:50:16;;;;;;;;;;;;;;;;;;5027209;28;20317;-73
2022/12/26 17:52:41;;;;;;;;;;;;;;;;;;5026916;28;19931;-73
2022/12/26 17:55:07;;;;;;;;;;;;;;;;;;5045190;28;20276;-72
2022/12/26 17:57:35;;;;;;;;;;;;;;;;;;5048389;28;20012;-72
2022/12/26 18:00:00;;;;;;;;;;;;;;;;;;5007122;28;19941;-72
2022/12/26 18:02:26;;;;;;;;;;;;;;;;;;5047134;28;19916;-72
2022/12/26 18:04:52;;;;;;;;;;;;;;;;;;5031511;28;19921;-72
2022/12/26 18:07:20;;;;;;;;;;;;;;;;;;5011931;28;19917;-72
2022/12/26 18:09:47;;;;;;;;;;;;;;;;;;5029273;28;19928;-73
2022/12/26 18:12:15;;;;;;;;;;;;;;;;;;5030191;28;19928;-73
2022/12/26 18:14:40;;;;;;;;;;;;;;;;;;5047194;28;19924;-73
2022/12/26 18:17:08;;;;;;;;;;;;;;;;;;5044650;28;19916;-74
2022/12/26 18:19:37;;;;;;;;;;;;;;;;;;5019766;28;19959;-73
2022/12/26 18:22:02;;;;;;;;;;;;;;;;;;5044359;28;19920;-73
2022/12/26 18:24:28;;;;;;;;;;;;;;;;;;5021711;28;20391;-72
2022/12/26 18:26:56;;;;;;;;;;;;;;;;;;5023235;28;19955;-74
2022/12/26 18:29:23;;;;;;;;;;;;;;;;;;5045795;28;20454;-72
2022/12/26 18:31:49;;;;;;;;;;;;;;;;;;5007438;28;19979;-72
2022/12/26 18:34:14;;;;;;;;;;;;;;;;;;5026220;28;19920;-72
2022/12/26 18:36:41;;;;;;;;;;;;;;;;;;5028305;28;19927;-73
2022/12/26 18:39:06;;;;;;;;;;;;;;;;;;5029607;28;19920;-74
2022/12/26 18:41:34;;;;;;;;;;;;;;;;;;5011289;28;20593;-72
2022/12/26 18:44:03;;;;;;;;;;;;;;;;;;5027146;28;21035;-72
2022/12/26 18:46:28;;;;;;;;;;;;;;;;;;5009611;28;20424;-72
2022/12/26 18:48:55;;;;;;;;;;;;;;;;;;5004540;28;19921;-73
2022/12/26 18:51:23;;;;;;;;;;;;;;;;;;5046279;28;19935;-72
2022/12/26 18:53:51;;;;;;;;;;;;;;;;;;5049512;28;19920;-73
2022/12/26 18:56:19;;;;;;;;;;;;;;;;;;5031286;28;20006;-72
2022/12/26 18:58:45;;;;;;;;;;;;;;;;;;5029753;28;20292;-73
2022/12/26 19:01:10;;;;;;;;;;;;;;;;;;5011218;28;19986;-73
2022/12/26 19:03:38;;;;;;;;;;;;;;;;;;5028697;28;19959;-73
2022/12/26 19:06:08;;;;;;;;;;;;;;;;;;5048939;28;20257;-73
2022/12/26 19:08:33;;;;;;;;;;;;;;;;;;5031259;28;20080;-73